Time;durP1;ratioP1;P1;durP2;ratioP2;P2;SDS_P1;SDS_P2;PMS_P1;PMS_P2;Temp;Humidity;BMP_temperature;BMP_pressure;BME280_temperature;BME280_humidity;BME280_pressure;Samples;Min_cycle;Max_cycle;Signal;HPM_P1;HPM_P2
2022/10/19 00:07:26;;;;;;;;;;;6.20;99.90;;;;;;5094770;28;19961;-68
2022/10/19 00:09:51;;;;;;;;;;;6.10;99.90;;;;;;5094353;28;19908;-68
2022/10/19 00:12:17;;;;;;;;;;;6.00;99.90;;;;;;5094110;28;19931;-68
2022/10/19 00:14:42;;;;;;;;;;;6.00;99.90;;;;;;5094307;28;20491;-68
2022/10/19 00:17:08;;;;;;;;;;;6.00;99.90;;;;;;5094221;28;19908;-69
2022/10/19 00:19:33;;;;;;;;;;;6.00;99.90;;;;;;5094238;28;19962;-68
2022/10/19 00:21:59;;;;;;;;;;;5.90;99.90;;;;;;5094459;28;19908;-67
2022/10/19 00:24:24;;;;;;;;;;;5.90;99.90;;;;;;5092898;28;19908;-68
2022/10/19 00:26:50;;;;;;;;;;;5.80;99.90;;;;;;5094048;28;20388;-68
2022/10/19 00:29:15;;;;;;;;;;;5.80;99.90;;;;;;5094061;28;19908;-67
2022/10/19 00:31:41;;;;;;;;;;;5.80;99.90;;;;;;5092838;28;19914;-68
2022/10/19 00:34:06;;;;;;;;;;;5.70;99.90;;;;;;5093868;28;19919;-67
2022/10/19 00:36:33;;;;;;;;;;;5.70;99.90;;;;;;5092667;28;20045;-68
2022/10/19 00:38:59;;;;;;;;;;;5.60;99.90;;;;;;5093831;28;19908;-68
2022/10/19 00:41:26;;;;;;;;;;;5.60;99.90;;;;;;5093839;28;20495;-67
2022/10/19 00:46:33;;;;;;;;;;;5.50;99.90;;;;;;5144526;27;19919;-68
2022/10/19 00:49:17;;;;;;;;;;;5.50;99.90;;;;;;5109916;28;20434;-69
2022/10/19 00:51:45;;;;;;;;;;;5.50;99.90;;;;;;5111137;28;19908;-68
2022/10/19 00:54:10;;;;;;;;;;;5.50;99.90;;;;;;5111096;28;19914;-68
2022/10/19 00:56:37;;;;;;;;;;;5.40;99.90;;;;;;5111041;28;19952;-67
2022/10/19 00:59:04;;;;;;;;;;;5.40;99.90;;;;;;5109800;28;19914;-67
2022/10/19 01:01:30;;;;;;;;;;;5.40;99.90;;;;;;5110989;28;19951;-68
2022/10/19 01:03:55;;;;;;;;;;;5.40;99.90;;;;;;5109676;28;19908;-68
2022/10/19 01:06:22;;;;;;;;;;;5.40;99.90;;;;;;5110787;28;19912;-68
2022/10/19 01:08:47;;;;;;;;;;;5.40;99.90;;;;;;5109487;28;19915;-67
2022/10/19 01:14:13;;;;;;;;;;;5.30;99.90;;;;;;5144126;27;19919;-68
2022/10/19 01:16:58;;;;;;;;;;;5.40;99.90;;;;;;5111163;28;19916;-68
2022/10/19 01:19:44;;;;;;;;;;;5.40;99.90;;;;;;5111042;28;19908;-68
2022/10/19 01:22:30;;;;;;;;;;;5.30;99.90;;;;;;5109676;28;19909;-67
2022/10/19 01:24:59;;;;;;;;;;;5.30;99.90;;;;;;5109584;28;19912;-67
2022/10/19 01:27:44;;;;;;;;;;;5.20;99.90;;;;;;5111000;28;19912;-67
2022/10/19 01:30:11;;;;;;;;;;;5.20;99.90;;;;;;5110921;28;19912;-67
2022/10/19 01:32:45;;;;;;;;;;;5.20;99.90;;;;;;5110813;28;20280;-67
2022/10/19 01:35:31;;;;;;;;;;;5.20;99.90;;;;;;5110819;28;19908;-67
2022/10/19 01:38:16;;;;;;;;;;;5.30;99.90;;;;;;5110730;28;19915;-67
2022/10/19 01:41:01;;;;;;;;;;;5.40;99.90;;;;;;5110702;28;19908;-67
2022/10/19 01:43:32;;;;;;;;;;;5.50;99.90;;;;;;5110584;28;19908;-68
2022/10/19 01:46:04;;;;;;;;;;;5.70;99.90;;;;;;5110640;28;20013;-68
2022/10/19 01:48:33;;;;;;;;;;;5.80;99.90;;;;;;5110897;28;19946;-67
2022/10/19 01:51:02;;;;;;;;;;;5.90;99.90;;;;;;5110483;28;19970;-67
2022/10/19 01:53:29;;;;;;;;;;;6.00;99.90;;;;;;5092142;28;19948;-67
2022/10/19 01:55:55;;;;;;;;;;;6.00;99.90;;;;;;5109129;28;19908;-68
2022/10/19 01:58:24;;;;;;;;;;;6.10;99.90;;;;;;5109135;28;19994;-67
2022/10/19 02:00:51;;;;;;;;;;;6.10;99.90;;;;;;5108992;28;19908;-67
2022/10/19 02:03:17;;;;;;;;;;;6.00;99.90;;;;;;5110306;28;19908;-68
2022/10/19 02:05:43;;;;;;;;;;;6.00;99.90;;;;;;5110253;28;19915;-68
2022/10/19 02:08:13;;;;;;;;;;;5.90;99.90;;;;;;5110198;28;19919;-67
2022/10/19 02:10:41;;;;;;;;;;;5.90;99.90;;;;;;5108845;28;20009;-67
2022/10/19 02:13:06;;;;;;;;;;;5.80;99.90;;;;;;5109865;28;19920;-68
2022/10/19 02:15:35;;;;;;;;;;;5.80;99.90;;;;;;5110062;28;19916;-67
2022/10/19 02:18:01;;;;;;;;;;;5.70;99.90;;;;;;5108834;28;19908;-68
2022/10/19 02:20:27;;;;;;;;;;;5.70;99.90;;;;;;5109982;28;20324;-68
2022/10/19 02:22:52;;;;;;;;;;;5.60;99.90;;;;;;5109851;28;19951;-67
2022/10/19 02:25:18;;;;;;;;;;;5.60;99.90;;;;;;5097255;28;19915;-68
2022/10/19 02:27:44;;;;;;;;;;;5.50;99.90;;;;;;5096257;28;19936;-67
2022/10/19 02:30:11;;;;;;;;;;;5.50;99.90;;;;;;5096204;28;20454;-68
2022/10/19 02:32:37;;;;;;;;;;;5.50;99.90;;;;;;5094808;28;19912;-67
2022/10/19 02:35:02;;;;;;;;;;;5.50;99.90;;;;;;5096116;28;19915;-67
2022/10/19 02:37:28;;;;;;;;;;;5.50;99.90;;;;;;5096087;28;19912;-67
2022/10/19 02:39:53;;;;;;;;;;;5.60;99.90;;;;;;5096006;28;19954;-66
2022/10/19 02:42:23;;;;;;;;;;;5.60;99.90;;;;;;5095979;28;19956;-67
2022/10/19 02:44:51;;;;;;;;;;;5.60;99.90;;;;;;5094628;28;19908;-68
2022/10/19 02:47:19;;;;;;;;;;;5.70;99.90;;;;;;5095849;28;19916;-66
2022/10/19 02:49:45;;;;;;;;;;;5.70;99.90;;;;;;5094532;28;19908;-67
2022/10/19 02:52:11;;;;;;;;;;;5.70;99.90;;;;;;5094544;28;19919;-67
2022/10/19 02:54:38;;;;;;;;;;;5.80;99.90;;;;;;5095779;28;19908;-67
2022/10/19 02:57:12;;;;;;;;;;;5.80;99.90;;;;;;5094392;28;19908;-67
2022/10/19 02:59:38;;;;;;;;;;;5.90;99.90;;;;;;5095644;28;19915;-67
2022/10/19 03:02:03;;;;;;;;;;;5.90;99.90;;;;;;5095628;28;19909;-67
2022/10/19 03:04:29;;;;;;;;;;;5.90;99.90;;;;;;5095564;28;19954;-68
2022/10/19 03:06:54;;;;;;;;;;;5.90;99.90;;;;;;5094161;28;19999;-67
2022/10/19 03:09:19;;;;;;;;;;;5.80;99.90;;;;;;5077293;28;20376;-68
2022/10/19 03:11:45;;;;;;;;;;;5.90;99.90;;;;;;5095112;28;20372;-67
2022/10/19 03:14:10;;;;;;;;;;;5.90;99.90;;;;;;5094065;28;19908;-67
2022/10/19 03:16:36;;;;;;;;;;;5.90;99.90;;;;;;5095348;28;20379;-68
2022/10/19 03:19:01;;;;;;;;;;;5.90;99.90;;;;;;5095265;28;19930;-67
2022/10/19 03:21:27;;;;;;;;;;;5.90;99.90;;;;;;5095253;28;19914;-67
2022/10/19 03:23:53;;;;;;;;;;;5.90;99.90;;;;;;5095192;28;19912;-67
2022/10/19 03:26:18;;;;;;;;;;;5.90;99.90;;;;;;5093957;28;20361;-66
2022/10/19 03:28:44;;;;;;;;;;;5.80;99.90;;;;;;5095103;28;19991;-67
2022/10/19 03:31:09;;;;;;;;;;;5.80;99.90;;;;;;5095107;28;20434;-66
2022/10/19 03:33:35;;;;;;;;;;;5.80;99.90;;;;;;5094915;28;19919;-67
2022/10/19 03:36:18;;;;;;;;;;;5.80;99.90;;;;;;5093943;28;19908;-67
2022/10/19 03:38:44;;;;;;;;;;;5.70;99.90;;;;;;5094918;28;20285;-67
2022/10/19 03:41:09;;;;;;;;;;;5.60;99.90;;;;;;5093766;28;19908;-66
2022/10/19 03:43:35;;;;;;;;;;;5.60;99.90;;;;;;5094882;28;19908;-67
2022/10/19 03:46:00;;;;;;;;;;;5.50;99.90;;;;;;5094766;28;19909;-67
2022/10/19 03:48:26;;;;;;;;;;;5.40;99.90;;;;;;5094754;28;20399;-67
2022/10/19 03:51:08;;;;;;;;;;;5.40;99.90;;;;;;5094655;28;19908;-67
2022/10/19 03:53:34;;;;;;;;;;;5.30;99.90;;;;;;5094530;28;19913;-67
2022/10/19 03:56:04;;;;;;;;;;;5.30;99.90;;;;;;5093351;28;20372;-66
2022/10/19 03:58:30;;;;;;;;;;;5.30;99.90;;;;;;5093344;28;20361;-67
2022/10/19 04:00:56;;;;;;;;;;;5.30;99.90;;;;;;5093222;28;19908;-67
2022/10/19 04:03:21;;;;;;;;;;;5.30;99.90;;;;;;5094412;28;19930;-66
2022/10/19 04:05:47;;;;;;;;;;;5.30;99.90;;;;;;5094402;28;19908;-66
2022/10/19 04:08:12;;;;;;;;;;;5.30;99.90;;;;;;5094396;28;19915;-67
2022/10/19 04:10:37;;;;;;;;;;;5.30;99.90;;;;;;5094225;28;19912;-67
2022/10/19 04:13:03;;;;;;;;;;;5.30;99.90;;;;;;5092761;28;19926;-67
2022/10/19 04:15:28;;;;;;;;;;;5.20;99.90;;;;;;5094181;28;19959;-66
2022/10/19 04:17:54;;;;;;;;;;;5.20;99.90;;;;;;5094077;28;19915;-66
2022/10/19 04:20:19;;;;;;;;;;;5.10;99.90;;;;;;5092998;28;19962;-67
2022/10/19 04:22:45;;;;;;;;;;;5.10;99.90;;;;;;5092901;28;20003;-67
2022/10/19 04:25:11;;;;;;;;;;;5.00;99.90;;;;;;5094059;28;19998;-67
2022/10/19 04:27:36;;;;;;;;;;;5.00;99.90;;;;;;5094058;28;20277;-67
2022/10/19 04:30:02;;;;;;;;;;;5.00;99.90;;;;;;5093959;28;19995;-67
2022/10/19 04:32:28;;;;;;;;;;;5.00;99.90;;;;;;5093825;28;20332;-67
2022/10/19 04:34:53;;;;;;;;;;;5.10;99.90;;;;;;5092525;28;19908;-66
2022/10/19 04:37:19;;;;;;;;;;;5.20;99.90;;;;;;5093822;28;20381;-66
2022/10/19 04:39:44;;;;;;;;;;;5.20;99.90;;;;;;5093782;28;19908;-67
2022/10/19 04:42:10;;;;;;;;;;;5.20;99.90;;;;;;5093690;28;19908;-67
2022/10/19 04:44:35;;;;;;;;;;;5.20;99.90;;;;;;5093792;28;20003;-66
2022/10/19 04:47:01;;;;;;;;;;;5.20;99.90;;;;;;5093790;28;19961;-66
2022/10/19 04:49:26;;;;;;;;;;;5.20;99.90;;;;;;5094013;28;19908;-66
2022/10/19 04:51:51;;;;;;;;;;;5.20;99.90;;;;;;5093950;28;20381;-66
2022/10/19 04:54:17;;;;;;;;;;;5.20;99.90;;;;;;5093921;28;20324;-67
2022/10/19 04:56:42;;;;;;;;;;;5.30;99.90;;;;;;5093936;28;19908;-66
2022/10/19 04:59:08;;;;;;;;;;;5.30;99.90;;;;;;5093924;28;19912;-66
2022/10/19 05:01:34;;;;;;;;;;;5.30;99.90;;;;;;5093863;28;20379;-66
2022/10/19 05:04:01;;;;;;;;;;;5.40;99.90;;;;;;5086483;28;19956;-66
2022/10/19 05:06:27;;;;;;;;;;;5.40;99.90;;;;;;5088874;28;20330;-66
2022/10/19 05:08:52;;;;;;;;;;;5.40;99.90;;;;;;5093764;28;20006;-67
2022/10/19 05:11:18;;;;;;;;;;;5.40;99.90;;;;;;5089511;28;19993;-66
2022/10/19 05:13:44;;;;;;;;;;;5.30;99.90;;;;;;5088938;28;20310;-67
2022/10/19 05:16:11;;;;;;;;;;;5.40;99.90;;;;;;5099587;28;19962;-66
2022/10/19 05:18:36;;;;;;;;;;;5.50;99.90;;;;;;5106675;28;19913;-67
2022/10/19 05:21:04;;;;;;;;;;;5.50;99.90;;;;;;5073522;28;19913;-66
2022/10/19 05:23:29;;;;;;;;;;;5.60;99.90;;;;;;5075603;28;19928;-66
2022/10/19 05:25:59;;;;;;;;;;;5.60;99.90;;;;;;5088854;28;20361;-66
2022/10/19 05:28:25;;;;;;;;;;;5.60;99.90;;;;;;5083970;28;19912;-67
2022/10/19 05:30:50;;;;;;;;;;;5.70;99.90;;;;;;5082615;28;19919;-66
2022/10/19 05:33:15;;;;;;;;;;;5.80;99.90;;;;;;5074294;28;20323;-66
2022/10/19 05:35:41;;;;;;;;;;;5.70;99.90;;;;;;5087963;28;19916;-67
2022/10/19 05:38:06;;;;;;;;;;;5.70;99.90;;;;;;5093539;28;19908;-66
2022/10/19 05:40:32;;;;;;;;;;;5.70;99.90;;;;;;5092277;28;19916;-66
2022/10/19 05:42:57;;;;;;;;;;;5.60;99.90;;;;;;5073548;28;19908;-66
2022/10/19 05:45:23;;;;;;;;;;;5.70;99.90;;;;;;5083577;28;19969;-66
2022/10/19 05:47:48;;;;;;;;;;;5.70;99.90;;;;;;5092983;28;20014;-66
2022/10/19 05:50:14;;;;;;;;;;;5.70;99.90;;;;;;5093272;28;19915;-66
2022/10/19 05:52:39;;;;;;;;;;;5.80;99.90;;;;;;5093212;28;19912;-66
2022/10/19 05:55:05;;;;;;;;;;;5.80;99.90;;;;;;5093052;28;19957;-66
2022/10/19 05:57:31;;;;;;;;;;;5.80;99.90;;;;;;5092021;28;20266;-67
2022/10/19 05:59:57;;;;;;;;;;;5.90;99.90;;;;;;5092144;28;19912;-66
2022/10/19 06:02:23;;;;;;;;;;;5.90;99.90;;;;;;5089200;28;19919;-67
2022/10/19 06:04:48;;;;;;;;;;;5.90;99.90;;;;;;5093241;28;20263;-66
2022/10/19 06:07:14;;;;;;;;;;;6.00;99.90;;;;;;5109213;27;19913;-66
2022/10/19 06:09:39;;;;;;;;;;;6.00;99.90;;;;;;5083507;28;19918;-66
2022/10/19 06:12:05;;;;;;;;;;;6.00;99.90;;;;;;5088569;28;19963;-65
2022/10/19 06:14:30;;;;;;;;;;;6.10;99.90;;;;;;5077935;28;19912;-66
2022/10/19 06:16:56;;;;;;;;;;;6.20;99.90;;;;;;5095927;28;19912;-65
2022/10/19 06:19:21;;;;;;;;;;;6.20;99.90;;;;;;5090044;28;19920;-66
2022/10/19 06:21:47;;;;;;;;;;;6.30;99.90;;;;;;5091508;28;19912;-65
2022/10/19 06:24:12;;;;;;;;;;;6.40;99.90;;;;;;5088637;28;19919;-66
2022/10/19 06:26:38;;;;;;;;;;;6.50;99.90;;;;;;5096280;28;19951;-66
2022/10/19 06:29:04;;;;;;;;;;;6.60;99.90;;;;;;5091785;28;19940;-65
2022/10/19 06:31:31;;;;;;;;;;;6.60;99.90;;;;;;5083692;28;19912;-66
2022/10/19 06:33:57;;;;;;;;;;;6.70;99.90;;;;;;5093761;28;19920;-66
2022/10/19 06:36:24;;;;;;;;;;;6.80;99.90;;;;;;5094290;28;19919;-66
2022/10/19 06:38:49;;;;;;;;;;;6.90;99.90;;;;;;5094270;28;19963;-66
2022/10/19 06:41:15;;;;;;;;;;;6.90;99.90;;;;;;5094130;28;19958;-66
2022/10/19 06:43:42;;;;;;;;;;;6.90;99.90;;;;;;5101683;28;19912;-66
2022/10/19 06:46:13;;;;;;;;;;;7.00;99.90;;;;;;5098520;27;19920;-66
2022/10/19 06:48:40;;;;;;;;;;;7.00;99.90;;;;;;5085090;28;19978;-66
2022/10/19 06:51:06;;;;;;;;;;;7.10;99.90;;;;;;5090939;28;19999;-66
2022/10/19 06:53:33;;;;;;;;;;;7.10;99.90;;;;;;5094192;28;19916;-66
2022/10/19 06:55:59;;;;;;;;;;;7.10;99.90;;;;;;5083446;28;19917;-66
2022/10/19 06:58:25;;;;;;;;;;;7.20;99.90;;;;;;5102574;27;20006;-65
2022/10/19 07:00:58;;;;;;;;;;;7.30;99.90;;;;;;5095804;28;20004;-66
2022/10/19 07:03:24;;;;;;;;;;;7.40;99.90;;;;;;5097152;28;20305;-65
2022/10/19 07:06:06;;;;;;;;;;;7.60;99.90;;;;;;5087965;28;19916;-65
2022/10/19 07:08:32;;;;;;;;;;;7.80;99.90;;;;;;5091960;28;19916;-66
2022/10/19 07:10:58;;;;;;;;;;;7.90;99.90;;;;;;5098018;28;19965;-66
2022/10/19 07:13:25;;;;;;;;;;;8.00;99.90;;;;;;5096169;28;20291;-66
2022/10/19 07:15:55;;;;;;;;;;;8.20;99.90;;;;;;5093215;28;19958;-66
2022/10/19 07:18:21;;;;;;;;;;;8.30;99.90;;;;;;5087205;28;19957;-67
2022/10/19 07:20:54;;;;;;;;;;;8.40;99.90;;;;;;5093194;28;19995;-66
2022/10/19 07:23:20;;;;;;;;;;;8.40;99.90;;;;;;5088914;28;20036;-66
2022/10/19 07:25:45;;;;;;;;;;;8.60;99.90;;;;;;5104022;27;20471;-67
2022/10/19 07:28:10;;;;;;;;;;;8.70;99.90;;;;;;5096546;28;19912;-66
2022/10/19 07:30:37;;;;;;;;;;;8.80;99.90;;;;;;5086405;28;20006;-68
2022/10/19 07:33:03;;;;;;;;;;;9.10;99.90;;;;;;5096810;28;19974;-67
2022/10/19 07:35:29;;;;;;;;;;;9.30;99.90;;;;;;5084171;28;20347;-69
2022/10/19 07:37:54;;;;;;;;;;;9.60;99.90;;;;;;5088289;28;19920;-69
2022/10/19 07:40:20;;;;;;;;;;;9.80;99.90;;;;;;5086093;28;20300;-68
2022/10/19 07:42:45;;;;;;;;;;;10.20;99.90;;;;;;5097346;28;19917;-69
2022/10/19 07:45:11;;;;;;;;;;;10.50;99.90;;;;;;5093519;28;20389;-69
2022/10/19 07:47:36;;;;;;;;;;;11.10;99.90;;;;;;5093843;28;19980;-68
2022/10/19 07:50:02;;;;;;;;;;;11.50;99.90;;;;;;5077951;28;19947;-68
2022/10/19 07:52:27;;;;;;;;;;;11.90;99.90;;;;;;5085307;28;20028;-67
2022/10/19 07:54:54;;;;;;;;;;;12.60;99.90;;;;;;5080173;28;19913;-69
2022/10/19 07:57:21;;;;;;;;;;;13.00;99.90;;;;;;5091156;28;20369;-69
2022/10/19 07:59:46;;;;;;;;;;;13.00;99.90;;;;;;5093525;28;19923;-68
2022/10/19 08:02:15;;;;;;;;;;;12.70;99.90;;;;;;5091158;28;19912;-69
2022/10/19 08:04:40;;;;;;;;;;;12.50;99.90;;;;;;5090169;28;19923;-69
2022/10/19 08:07:05;;;;;;;;;;;12.30;99.90;;;;;;5111926;27;19913;-69
2022/10/19 08:09:31;;;;;;;;;;;12.30;99.90;;;;;;5100683;28;19923;-69
2022/10/19 08:11:56;;;;;;;;;;;12.20;99.90;;;;;;5084780;28;19912;-70
2022/10/19 08:14:22;;;;;;;;;;;12.10;99.90;;;;;;5091368;28;20007;-69
2022/10/19 08:16:47;;;;;;;;;;;12.20;99.90;;;;;;5087773;28;19912;-69
2022/10/19 08:19:14;;;;;;;;;;;12.20;99.90;;;;;;5087813;28;20023;-69
2022/10/19 08:21:41;;;;;;;;;;;13.10;99.90;;;;;;5080703;28;20366;-70
2022/10/19 08:24:06;;;;;;;;;;;13.90;99.90;;;;;;5107170;27;19919;-70
2022/10/19 08:26:33;;;;;;;;;;;14.30;99.90;;;;;;5089903;28;19912;-71
2022/10/19 08:28:59;;;;;;;;;;;15.00;99.90;;;;;;5099866;28;19916;-70
2022/10/19 08:31:25;;;;;;;;;;;16.00;99.90;;;;;;5093802;28;20350;-70
2022/10/19 08:33:50;;;;;;;;;;;16.20;99.90;;;;;;5098372;28;20090;-70
2022/10/19 08:36:18;;;;;;;;;;;16.50;99.90;;;;;;5088189;28;19912;-71
2022/10/19 08:38:44;;;;;;;;;;;17.30;99.90;;;;;;5100056;28;19912;-71
2022/10/19 08:41:16;;;;;;;;;;;17.80;99.90;;;;;;5096243;28;20313;-71
2022/10/19 08:43:51;;;;;;;;;;;18.10;99.90;;;;;;5085689;28;19912;-71
2022/10/19 08:46:24;;;;;;;;;;;18.30;99.90;;;;;;5084441;28;20465;-71
2022/10/19 08:48:50;;;;;;;;;;;18.70;99.90;;;;;;5089058;28;20258;-70
2022/10/19 08:51:16;;;;;;;;;;;18.40;99.90;;;;;;5090361;28;20293;-71
2022/10/19 08:53:44;;;;;;;;;;;17.80;99.90;;;;;;5088130;28;19915;-70
2022/10/19 08:56:17;;;;;;;;;;;17.50;99.90;;;;;;5085635;28;19916;-71
2022/10/19 08:59:02;;;;;;;;;;;18.60;99.90;;;;;;5090752;28;19916;-70
2022/10/19 09:01:47;;;;;;;;;;;18.60;99.90;;;;;;5088700;28;20377;-70
2022/10/19 09:04:20;;;;;;;;;;;17.60;99.90;;;;;;5089533;28;20494;-71
2022/10/19 09:06:50;;;;;;;;;;;17.20;99.90;;;;;;5108991;27;20006;-71
2022/10/19 09:09:17;;;;;;;;;;;16.40;99.90;;;;;;5092534;28;19927;-71
2022/10/19 09:11:45;;;;;;;;;;;16.80;99.90;;;;;;5086900;28;20293;-71
2022/10/19 09:14:31;;;;;;;;;;;17.60;99.90;;;;;;5087318;28;19974;-71
2022/10/19 09:17:00;;;;;;;;;;;17.50;99.90;;;;;;5090965;28;19912;-70
2022/10/19 09:19:28;;;;;;;;;;;17.50;99.90;;;;;;5090381;28;19965;-71
2022/10/19 09:21:56;;;;;;;;;;;17.30;99.90;;;;;;5084377;28;19916;-70
2022/10/19 09:24:35;;;;;;;;;;;17.30;99.90;;;;;;5094099;28;20031;-70
2022/10/19 09:27:00;;;;;;;;;;;17.20;99.90;;;;;;5084829;28;19919;-70
2022/10/19 09:29:43;;;;;;;;;;;17.50;99.90;;;;;;5082305;28;19999;-70
2022/10/19 09:32:12;;;;;;;;;;;17.70;99.90;;;;;;5083847;28;19924;-71
2022/10/19 09:34:42;;;;;;;;;;;17.40;99.90;;;;;;5084093;28;20223;-70
2022/10/19 09:37:07;;;;;;;;;;;17.70;99.90;;;;;;5094611;28;19908;-70
2022/10/19 09:39:34;;;;;;;;;;;17.80;99.90;;;;;;5091340;28;20590;-71
2022/10/19 09:42:19;;;;;;;;;;;18.30;99.90;;;;;;5092312;28;19961;-71
2022/10/19 09:44:45;;;;;;;;;;;19.20;99.90;;;;;;5090044;28;20016;-71
2022/10/19 09:47:25;;;;;;;;;;;19.40;99.90;;;;;;5093657;28;19999;-71
2022/10/19 09:50:03;;;;;;;;;;;20.20;99.90;;;;;;5096353;28;19936;-71
2022/10/19 09:52:33;;;;;;;;;;;20.20;99.90;;;;;;5097777;28;19920;-71
2022/10/19 09:55:01;;;;;;;;;;;19.70;99.90;;;;;;5095466;28;20304;-71
2022/10/19 09:57:27;;;;;;;;;;;19.00;99.90;;;;;;5095995;28;20259;-70
2022/10/19 09:59:53;;;;;;;;;;;18.40;99.90;;;;;;5091719;28;19919;-72
2022/10/19 10:02:21;;;;;;;;;;;18.30;99.90;;;;;;5091992;28;19915;-72
2022/10/19 10:04:53;;;;;;;;;;;18.80;99.90;;;;;;5091572;28;19937;-71
2022/10/19 10:07:19;;;;;;;;;;;18.30;99.90;;;;;;5094070;28;20293;-72
2022/10/19 10:09:45;;;;;;;;;;;18.10;99.90;;;;;;5093087;28;19917;-71
2022/10/19 10:12:13;;;;;;;;;;;18.00;99.90;;;;;;5080189;28;20342;-71
2022/10/19 10:14:39;;;;;;;;;;;18.00;99.90;;;;;;5076735;28;19934;-70
2022/10/19 10:17:06;;;;;;;;;;;18.20;99.90;;;;;;5089452;28;19920;-71
2022/10/19 10:19:32;;;;;;;;;;;18.10;99.90;;;;;;5072641;28;20010;-70
2022/10/19 10:21:58;;;;;;;;;;;18.10;99.90;;;;;;5089737;28;19919;-70
2022/10/19 10:24:25;;;;;;;;;;;18.60;99.90;;;;;;5088544;28;19937;-70
2022/10/19 10:26:52;;;;;;;;;;;18.60;99.90;;;;;;5094858;28;19920;-69
2022/10/19 10:29:26;;;;;;;;;;;18.00;99.90;;;;;;5089710;28;20298;-71
2022/10/19 10:31:54;;;;;;;;;;;17.70;99.90;;;;;;5091315;28;20356;-71
2022/10/19 10:34:29;;;;;;;;;;;18.40;99.90;;;;;;5090899;28;20289;-70
2022/10/19 10:36:55;;;;;;;;;;;18.40;99.90;;;;;;5094712;28;19957;-70
2022/10/19 10:39:23;;;;;;;;;;;18.70;99.90;;;;;;5092139;28;20366;-70
2022/10/19 10:42:41;;;;;;;;;;;17.80;99.90;;;;;;5091698;28;19945;-70
2022/10/19 10:44:55;;;;;;;;;;;17.70;99.90;;;;;;5093514;28;20019;-71
2022/10/19 10:47:21;;;;;;;;;;;17.20;99.90;;;;;;5091806;28;19912;-70
2022/10/19 10:50:05;;;;;;;;;;;17.10;99.90;;;;;;5090803;28;19919;-71
2022/10/19 10:52:31;;;;;;;;;;;17.20;99.90;;;;;;5093303;28;20426;-71
2022/10/19 10:54:58;;;;;;;;;;;17.50;99.90;;;;;;5086499;28;19912;-70
2022/10/19 10:57:26;;;;;;;;;;;17.90;99.90;;;;;;5085119;28;19912;-71
2022/10/19 10:59:56;;;;;;;;;;;17.50;99.90;;;;;;5093157;28;19920;-71
2022/10/19 11:02:41;;;;;;;;;;;17.50;99.90;;;;;;5094272;28;19912;-71
2022/10/19 11:05:11;;;;;;;;;;;17.30;99.90;;;;;;5095204;28;20285;-71
2022/10/19 11:07:40;;;;;;;;;;;17.10;99.90;;;;;;5099028;28;19927;-71
2022/10/19 11:10:18;;;;;;;;;;;16.70;99.90;;;;;;5100609;28;19912;-71
2022/10/19 11:12:46;;;;;;;;;;;17.20;99.90;;;;;;5083229;28;19920;-71
2022/10/19 11:15:21;;;;;;;;;;;16.90;99.90;;;;;;5112291;27;19924;-71
2022/10/19 11:17:52;;;;;;;;;;;17.10;99.90;;;;;;5078485;28;20363;-70
2022/10/19 11:20:18;;;;;;;;;;;17.20;99.90;;;;;;5068528;28;19977;-70
2022/10/19 11:22:47;;;;;;;;;;;16.80;99.90;;;;;;5094986;28;20007;-70
2022/10/19 11:25:33;;;;;;;;;;;16.30;99.90;;;;;;5092522;28;20354;-71
2022/10/19 11:28:04;;;;;;;;;;;16.10;99.90;;;;;;5115325;27;20003;-70
2022/10/19 11:30:32;;;;;;;;;;;16.10;99.90;;;;;;5089910;28;19920;-70
2022/10/19 11:33:17;;;;;;;;;;;16.50;99.90;;;;;;5076376;28;20009;-70
2022/10/19 11:35:52;;;;;;;;;;;16.50;99.90;;;;;;5091853;28;20387;-70
2022/10/19 11:38:37;;;;;;;;;;;16.50;99.90;;;;;;5086912;28;19912;-70
2022/10/19 11:41:25;;;;;;;;;;;16.20;99.90;;;;;;5094516;28;20288;-70
2022/10/19 11:44:01;;;;;;;;;;;16.20;99.90;;;;;;5091403;28;19912;-70
2022/10/19 11:46:33;;;;;;;;;;;16.30;99.90;;;;;;5092863;28;20397;-70
2022/10/19 11:49:19;;;;;;;;;;;16.30;99.90;;;;;;5092475;28;20367;-70
2022/10/19 11:52:04;;;;;;;;;;;15.80;99.90;;;;;;5077324;28;19920;-70
2022/10/19 11:54:37;;;;;;;;;;;15.50;99.90;;;;;;5092294;28;20281;-70
2022/10/19 11:57:20;;;;;;;;;;;15.80;99.90;;;;;;5092565;28;19912;-70
2022/10/19 11:59:51;;;;;;;;;;;15.90;99.90;;;;;;5074145;28;19912;-71
2022/10/19 12:02:37;;;;;;;;;;;16.10;99.90;;;;;;5079697;28;20040;-70
2022/10/19 12:05:07;;;;;;;;;;;16.30;99.90;;;;;;5095915;28;19916;-71
2022/10/19 12:07:38;;;;;;;;;;;15.90;99.90;;;;;;5091853;28;20385;-71
2022/10/19 12:10:23;;;;;;;;;;;15.80;99.90;;;;;;5092112;28;19912;-70
2022/10/19 12:12:51;;;;;;;;;;;15.70;99.90;;;;;;5095055;28;19982;-70
2022/10/19 12:15:27;;;;;;;;;;;15.60;99.90;;;;;;5086009;28;19961;-70
2022/10/19 12:17:54;;;;;;;;;;;15.40;99.90;;;;;;5120899;27;19912;-71
2022/10/19 12:20:29;;;;;;;;;;;15.80;99.90;;;;;;5086841;28;19912;-70
2022/10/19 12:22:57;;;;;;;;;;;16.10;99.90;;;;;;5092294;28;19987;-72
2022/10/19 12:25:23;;;;;;;;;;;15.90;99.90;;;;;;5092941;28;20335;-71
2022/10/19 12:27:49;;;;;;;;;;;15.80;99.90;;;;;;5093356;28;19918;-71
2022/10/19 12:30:17;;;;;;;;;;;16.00;99.90;;;;;;5082203;28;20007;-71
2022/10/19 12:32:47;;;;;;;;;;;15.90;99.90;;;;;;5085310;28;19916;-71
2022/10/19 12:35:19;;;;;;;;;;;15.90;99.90;;;;;;5087966;28;19912;-71
2022/10/19 12:37:51;;;;;;;;;;;15.90;99.90;;;;;;5104800;28;20282;-71
2022/10/19 12:40:31;;;;;;;;;;;15.80;99.90;;;;;;5117072;27;19935;-73
2022/10/19 12:43:16;;;;;;;;;;;15.90;99.90;;;;;;5091536;28;19912;-72
2022/10/19 12:45:47;;;;;;;;;;;15.90;99.90;;;;;;5083761;28;19916;-73
2022/10/19 12:48:17;;;;;;;;;;;16.10;99.90;;;;;;5081341;28;19965;-71
2022/10/19 12:53:29;;;;;;;;;;;15.70;99.90;;;;;;5137172;27;19985;-72
2022/10/19 12:55:59;;;;;;;;;;;15.80;99.90;;;;;;5101452;28;19940;-71
2022/10/19 12:58:24;;;;;;;;;;;15.60;99.90;;;;;;5108620;28;19915;-71
2022/10/19 13:00:58;;;;;;;;;;;15.50;99.90;;;;;;5099746;28;19923;-69
2022/10/19 13:03:26;;;;;;;;;;;15.30;99.90;;;;;;5101307;28;19912;-69
2022/10/19 13:05:56;;;;;;;;;;;14.90;99.90;;;;;;5107928;28;19912;-69
2022/10/19 13:08:31;;;;;;;;;;;15.00;99.90;;;;;;5109310;28;19912;-68
2022/10/19 13:11:05;;;;;;;;;;;15.00;99.90;;;;;;5105193;28;19912;-68
2022/10/19 13:13:51;;;;;;;;;;;15.00;99.90;;;;;;5109341;28;19917;-68
2022/10/19 13:16:36;;;;;;;;;;;14.90;99.90;;;;;;5098005;28;20438;-68
2022/10/19 13:19:16;;;;;;;;;;;14.90;99.90;;;;;;5100437;28;20415;-69
2022/10/19 13:21:53;;;;;;;;;;;15.00;99.90;;;;;;5104628;28;20003;-69
2022/10/19 13:27:22;;;;;;;;;;;15.20;99.90;;;;;;5127786;27;20277;-69
2022/10/19 13:29:47;;;;;;;;;;;15.00;99.90;;;;;;5106243;28;19919;-71
2022/10/19 13:32:32;;;;;;;;;;;15.00;99.90;;;;;;5102034;28;19912;-69
2022/10/19 13:35:18;;;;;;;;;;;15.00;99.90;;;;;;5095395;28;19913;-69
2022/10/19 13:37:43;;;;;;;;;;;15.10;99.90;;;;;;5109079;28;19912;-69
2022/10/19 13:40:24;;;;;;;;;;;15.20;99.90;;;;;;5109372;28;19920;-69
2022/10/19 13:42:56;;;;;;;;;;;14.90;99.90;;;;;;5097978;28;19913;-69
2022/10/19 13:45:22;;;;;;;;;;;14.90;99.90;;;;;;5099231;28;20014;-70
2022/10/19 13:47:52;;;;;;;;;;;15.10;99.90;;;;;;5108558;27;20404;-69
2022/10/19 13:50:24;;;;;;;;;;;15.10;99.90;;;;;;5109598;28;19912;-69
2022/10/19 13:53:10;;;;;;;;;;;15.00;99.90;;;;;;5107839;28;19912;-69
2022/10/19 13:55:55;;;;;;;;;;;15.20;99.90;;;;;;5101683;28;19923;-69
2022/10/19 13:58:29;;;;;;;;;;;15.30;99.90;;;;;;5099866;28;20346;-69
2022/10/19 14:01:03;;;;;;;;;;;15.30;99.90;;;;;;5103757;28;19916;-69
2022/10/19 14:03:36;;;;;;;;;;;15.20;99.90;;;;;;5105960;28;20354;-70
2022/10/19 14:06:09;;;;;;;;;;;14.80;99.90;;;;;;5102804;28;19939;-69
2022/10/19 14:08:54;;;;;;;;;;;14.80;99.90;;;;;;5099051;28;19912;-70
2022/10/19 14:11:25;;;;;;;;;;;14.70;99.90;;;;;;5095430;28;20014;-69
2022/10/19 14:14:10;;;;;;;;;;;14.60;99.90;;;;;;5107979;28;20325;-70
2022/10/19 14:16:55;;;;;;;;;;;14.60;99.90;;;;;;5100101;28;20288;-70
2022/10/19 14:19:26;;;;;;;;;;;14.50;99.90;;;;;;5107312;28;19979;-71
2022/10/19 14:21:53;;;;;;;;;;;14.40;99.90;;;;;;5097791;28;20011;-70
2022/10/19 14:24:27;;;;;;;;;;;14.50;99.90;;;;;;5108143;28;20400;-70
2022/10/19 14:26:54;;;;;;;;;;;14.40;99.90;;;;;;5091001;28;19927;-70
2022/10/19 14:29:19;;;;;;;;;;;14.50;99.90;;;;;;5098316;28;19916;-70
2022/10/19 14:31:45;;;;;;;;;;;14.60;99.90;;;;;;5103451;28;19916;-69
2022/10/19 14:34:12;;;;;;;;;;;14.60;99.90;;;;;;5101252;28;19912;-70
2022/10/19 14:36:42;;;;;;;;;;;14.40;99.90;;;;;;5101739;28;20387;-69
2022/10/19 14:39:20;;;;;;;;;;;14.40;99.90;;;;;;5088589;28;19912;-69
2022/10/19 14:41:45;;;;;;;;;;;14.30;99.90;;;;;;5092788;28;19923;-69
2022/10/19 14:44:31;;;;;;;;;;;14.10;99.90;;;;;;5090255;28;19912;-69
2022/10/19 14:46:59;;;;;;;;;;;14.00;99.90;;;;;;5080737;28;20030;-69
2022/10/19 14:49:24;;;;;;;;;;;13.90;99.90;;;;;;5091136;28;20346;-69
2022/10/19 14:51:52;;;;;;;;;;;13.90;99.90;;;;;;5095863;28;19914;-69
2022/10/19 14:54:22;;;;;;;;;;;13.80;99.90;;;;;;5087408;28;20012;-69